| time (UTC) | temp F | wind direction | speed knots | gust knots | rain 1hr in | rain 24hr in | rain mn in | humidity % | barometer mb |
| 20260504222223 | 76 | 155 | 0.0 | 2.6 | 0.00 | 0.00 | 0.00 | 43 | 1016.2 |
| 20260504221720 | 77 | 227 | 1.7 | 4.3 | 0.00 | 0.00 | 0.00 | 43 | 1016.2 |
| 20260504221217 | 77 | 161 | 0.0 | 0.0 | 0.00 | 0.00 | 0.00 | 39 | 1016.0 |
| 20260504220714 | 77 | 221 | 3.5 | 6.1 | 0.00 | 0.00 | 0.00 | 38 | 1016.3 |
| 20260504220211 | 78 | 253 | 0.0 | 0.0 | 0.00 | 0.00 | 0.00 | 38 | 1016.4 |
| 20260504215708 | 78 | 124 | 0.0 | 0.0 | 0.00 | 0.00 | 0.00 | 37 | 1016.4 |
| 20260504215205 | 78 | 147 | 0.0 | 0.0 | 0.00 | 0.00 | 0.00 | 41 | 1016.4 |
| 20260504214700 | 78 | 157 | 0.0 | 0.0 | 0.00 | 0.00 | 0.00 | 42 | 1016.2 |
| 20260504214157 | 78 | 190 | 0.0 | 0.0 | 0.00 | 0.00 | 0.00 | 39 | 1016.3 |
| 20260504213654 | 77 | 134 | 0.0 | 0.0 | 0.00 | 0.00 | 0.00 | 38 | 1016.1 |
| 20260504213151 | 78 | 148 | 0.0 | 0.0 | 0.00 | 0.00 | 0.00 | 40 | 1016.2 |
| 20260504212647 | 77 | 160 | 0.0 | 0.0 | 0.00 | 0.00 | 0.00 | 38 | 1016.2 |
| 20260504212144 | 77 | 176 | 0.0 | 0.0 | 0.00 | 0.00 | 0.00 | 42 | 1016.2 |
| 20260504211641 | 77 | 178 | 0.0 | 0.0 | 0.00 | 0.00 | 0.00 | 38 | 1016.0 |
| 20260504211137 | 77 | 205 | 0.0 | 0.0 | 0.00 | 0.00 | 0.00 | 40 | 1016.1 |
| 20260504210636 | 77 | 185 | 0.0 | 0.0 | 0.00 | 0.00 | 0.00 | 39 | 1016.1 |
| 20260504210131 | 78 | 165 | 1.7 | 4.3 | 0.00 | 0.00 | 0.00 | 39 | 1016.3 |
| 20260504205629 | 78 | 152 | 0.0 | 0.0 | 0.00 | 0.00 | 0.00 | 40 | 1016.4 |
| 20260504205126 | 77 | 53 | 0.0 | 2.6 | 0.00 | 0.00 | 0.00 | 35 | 1016.2 |
| 20260504204625 | 77 | 148 | 0.0 | 2.6 | 0.00 | 0.00 | 0.00 | 38 | 1016.2 |
| 20260504204123 | 78 | 131 | 1.7 | 2.6 | 0.00 | 0.00 | 0.00 | 36 | 1016.2 |
| 20260504203622 | 78 | 183 | 1.7 | 2.6 | 0.00 | 0.00 | 0.00 | 34 | 1016.6 |
| 20260504203120 | 78 | 183 | 0.0 | 0.0 | 0.00 | 0.00 | 0.00 | 39 | 1016.6 |
| 20260504202619 | 78 | 136 | 0.0 | 4.3 | 0.00 | 0.00 | 0.00 | 37 | 1016.6 |
| 20260504202116 | 78 | 189 | 0.0 | 6.1 | 0.00 | 0.00 | 0.00 | 35 | 1016.6 |
| 20260504201613 | 79 | 187 | 0.9 | 4.3 | 0.00 | 0.00 | 0.00 | 36 | 1016.7 |
| 20260504201111 | 81 | 141 | 0.0 | 0.0 | 0.00 | 0.00 | 0.00 | 35 | 1016.7 |
| 20260504200608 | 80 | 157 | 0.0 | 0.0 | 0.00 | 0.00 | 0.00 | 35 | 1016.7 |
| 20260504200104 | 81 | 147 | 0.0 | 0.0 | 0.00 | 0.00 | 0.00 | 34 | 1016.8 |
| 20260504195600 | 80 | 202 | 1.7 | 4.3 | 0.00 | 0.00 | 0.00 | 33 | 1016.7 |
| 20260504195057 | 81 | 141 | 0.0 | 0.0 | 0.00 | 0.00 | 0.00 | 36 | 1016.8 |
| 20260504194554 | 81 | 167 | 0.0 | 2.6 | 0.00 | 0.00 | 0.00 | 34 | 1017.0 |
| 20260504194049 | 80 | 145 | 0.0 | 8.7 | 0.00 | 0.00 | 0.00 | 33 | 1016.8 |
| 20260504193546 | 82 | 174 | 2.6 | 4.3 | 0.00 | 0.00 | 0.00 | 32 | 1016.9 |
| 20260504193045 | 80 | 169 | 0.0 | 0.0 | 0.00 | 0.00 | 0.00 | 35 | 1017.2 |
| 20260504192543 | 82 | 157 | 0.0 | 0.0 | 0.00 | 0.00 | 0.00 | 34 | 1017.5 |
| 20260504192040 | 80 | 155 | 0.0 | 2.6 | 0.00 | 0.00 | 0.00 | 36 | 1017.5 |
| 20260504191538 | 81 | 202 | 0.0 | 2.6 | 0.00 | 0.00 | 0.00 | 35 | 1017.4 |
| 20260504191034 | 80 | 206 | 0.0 | 0.0 | 0.00 | 0.00 | 0.00 | 35 | 1017.5 |
| 20260504190530 | 81 | 121 | 0.0 | 2.6 | 0.00 | 0.00 | 0.00 | 30 | 1017.6 |
| 20260504190026 | 82 | 196 | 0.0 | 0.0 | 0.00 | 0.00 | 0.00 | 32 | 1017.8 |
| 20260504185524 | 82 | 94 | 0.0 | 0.0 | 0.00 | 0.00 | 0.00 | 34 | 1017.7 |
| 20260504185020 | 79 | 170 | 1.7 | 2.6 | 0.00 | 0.00 | 0.00 | 38 | 1017.8 |
| 20260504184515 | 80 | 163 | 0.0 | 0.0 | 0.00 | 0.00 | 0.00 | 35 | 1017.9 |
| 20260504184011 | 79 | 133 | 0.0 | 2.6 | 0.00 | 0.00 | 0.00 | 34 | 1017.8 |
| 20260504183508 | 80 | 148 | 0.0 | 2.6 | 0.00 | 0.00 | 0.00 | 35 | 1018.0 |
| 20260504183007 | 78 | 149 | 0.0 | 4.3 | 0.00 | 0.00 | 0.00 | 36 | 1018.1 |
| 20260504182503 | 80 | 197 | 0.0 | 0.0 | 0.00 | 0.00 | 0.00 | 36 | 1018.0 |
| 20260504182000 | 78 | 136 | 0.9 | 4.3 | 0.00 | 0.00 | 0.00 | 41 | 1018.3 |
| 20260504181457 | 80 | 139 | 0.0 | 0.0 | 0.00 | 0.00 | 0.00 | 36 | 1018.1 |
| 20260504180956 | 77 | 194 | 1.7 | 4.3 | 0.00 | 0.00 | 0.00 | 38 | 1018.1 |
| 20260504180454 | 79 | 219 | 0.0 | 0.0 | 0.00 | 0.00 | 0.00 | 37 | 1018.3 |
| 20260504175953 | 80 | 309 | 0.0 | 0.0 | 0.00 | 0.00 | 0.00 | 32 | 1018.4 |
| 20260504175449 | 79 | 155 | 0.0 | 2.6 | 0.00 | 0.00 | 0.00 | 36 | 1018.1 |
| 20260504174947 | 80 | 134 | 0.0 | 0.0 | 0.00 | 0.00 | 0.00 | 37 | 1018.5 |
| 20260504174444 | 78 | 125 | 0.0 | 0.0 | 0.00 | 0.00 | 0.00 | 37 | 1018.5 |
| 20260504173942 | 77 | 40 | 0.0 | 2.6 | 0.00 | 0.00 | 0.00 | 34 | 1018.5 |
| 20260504173437 | 81 | 104 | 0.0 | 0.0 | 0.00 | 0.00 | 0.00 | 36 | 1018.6 |
| 20260504172936 | 77 | 82 | 0.0 | 0.0 | 0.00 | 0.00 | 0.00 | 37 | 1018.8 |
| 20260504172431 | 77 | 55 | 2.6 | 4.3 | 0.00 | 0.00 | 0.00 | 38 | 1018.9 |
| 20260504171928 | 78 | 193 | 2.6 | 4.3 | 0.00 | 0.00 | 0.00 | 43 | 1018.5 |
| 20260504171425 | 77 | 247 | 1.7 | 2.6 | 0.00 | 0.00 | 0.00 | 38 | 1018.9 |
| 20260504170922 | 78 | 21 | 0.0 | 0.0 | 0.00 | 0.00 | 0.00 | 37 | 1019.0 |
| 20260504170418 | 76 | 192 | 0.0 | 0.0 | 0.00 | 0.00 | 0.00 | 39 | 1018.9 |
| 20260504160337 | 78 | 159 | 0.0 | 2.6 | 0.00 | 0.00 | 0.00 | 42 | 1019.5 |
| 20260504150802 | 76 | 132 | 0.0 | 0.0 | 0.00 | 0.00 | 0.00 | 45 | 1019.9 |
| 20260504150258 | 75 | 173 | 0.0 | 0.0 | 0.00 | 0.00 | 0.00 | 45 | 1019.8 |
| 20260504141229 | 71 | 186 | 0.9 | 2.6 | 0.00 | 0.00 | 0.00 | 48 | 1020.3 |
| 20260504140725 | 71 | 144 | 0.0 | 0.0 | 0.00 | 0.00 | 0.00 | 53 | 1020.1 |
| 20260504140220 | 69 | 168 | 0.0 | 0.0 | 0.00 | 0.00 | 0.00 | 52 | 1020.3 |
| 20260504130649 | 70 | 133 | 0.0 | 0.0 | 0.00 | 0.00 | 0.00 | 56 | 1019.9 |
| 20260504130145 | 70 | 130 | 0.0 | 0.0 | 0.00 | 0.00 | 0.00 | 58 | 1020.2 |
| 20260504120110 | 48 | 113 | 0.0 | 0.0 | 0.00 | 0.00 | 0.00 | 99 | 1019.8 |
| 20260504110537 | 43 | 90 | 0.0 | 0.0 | 0.00 | 0.00 | 0.00 | 99 | 1019.3 |
| 20260504100459 | 44 | 92 | 0.0 | 0.0 | 0.00 | 0.00 | 0.00 | 99 | 1019.3 |
| 20260504081857 | 46 | 95 | 0.0 | 0.0 | 0.00 | 0.00 | 0.00 | 98 | 1019.3 |
| 20260504081354 | 46 | 95 | 0.0 | 0.0 | 0.00 | 0.00 | 0.00 | 98 | 1019.5 |
| 20260504080850 | 46 | 95 | 0.0 | 0.0 | 0.00 | 0.00 | 0.00 | 98 | 1019.5 |
| 20260504080347 | 46 | 95 | 0.0 | 0.0 | 0.00 | 0.00 | 0.00 | 97 | 1019.4 |
| 20260504070315 | 46 | 92 | 0.0 | 0.0 | 0.00 | 0.00 | 0.00 | 96 | 1019.8 |
| 20260504060235 | 48 | 93 | 0.0 | 0.0 | 0.00 | 0.00 | 0.00 | 94 | 1019.6 |
| 20260504050703 | 49 | 100 | 0.0 | 0.0 | 0.00 | 0.00 | 0.00 | 89 | 1020.3 |
| 20260504050200 | 49 | 104 | 0.0 | 0.0 | 0.00 | 0.00 | 0.00 | 88 | 1020.2 |
| 20260504045658 | 49 | 104 | 0.0 | 0.0 | 0.00 | 0.00 | 0.00 | 88 | 1020.3 |
| 20260504045157 | 50 | 107 | 0.0 | 0.0 | 0.00 | 0.00 | 0.00 | 87 | 1020.3 |
| 20260504044655 | 50 | 111 | 0.0 | 0.0 | 0.00 | 0.00 | 0.00 | 86 | 1020.5 |
| 20260504044152 | 50 | 111 | 0.0 | 0.0 | 0.00 | 0.00 | 0.00 | 86 | 1020.5 |
| 20260504043649 | 50 | 111 | 0.0 | 0.0 | 0.00 | 0.00 | 0.00 | 86 | 1020.5 |
| 20260504043146 | 50 | 112 | 0.0 | 0.0 | 0.00 | 0.00 | 0.00 | 85 | 1020.4 |
| 20260504042644 | 50 | 111 | 0.0 | 0.0 | 0.00 | 0.00 | 0.00 | 84 | 1020.2 |
| 20260504042140 | 50 | 112 | 0.0 | 0.0 | 0.00 | 0.00 | 0.00 | 84 | 1020.3 |
| 20260504041636 | 51 | 104 | 0.0 | 0.0 | 0.00 | 0.00 | 0.00 | 84 | 1020.2 |
| 20260504041132 | 51 | 114 | 0.0 | 0.0 | 0.00 | 0.00 | 0.00 | 84 | 1020.3 |
| 20260504040630 | 51 | 108 | 0.0 | 0.0 | 0.00 | 0.00 | 0.00 | 82 | 1020.4 |
| 20260504040126 | 51 | 108 | 0.0 | 0.0 | 0.00 | 0.00 | 0.00 | 82 | 1020.2 |
| 20260504035623 | 51 | 108 | 0.0 | 0.0 | 0.00 | 0.00 | 0.00 | 82 | 1020.4 |
| 20260504035120 | 51 | 108 | 0.0 | 0.0 | 0.00 | 0.00 | 0.00 | 82 | 1020.3 |
| 20260504034618 | 52 | 109 | 0.0 | 0.0 | 0.00 | 0.00 | 0.00 | 81 | 1020.3 |
| 20260504034114 | 52 | 114 | 0.0 | 0.0 | 0.00 | 0.00 | 0.00 | 81 | 1020.3 |
| 20260504033612 | 52 | 115 | 0.0 | 0.0 | 0.00 | 0.00 | 0.00 | 81 | 1020.4 |
| 20260504033109 | 52 | 107 | 0.0 | 0.0 | 0.00 | 0.00 | 0.00 | 81 | 1020.3 |
| 20260504032606 | 53 | 106 | 0.0 | 0.0 | 0.00 | 0.00 | 0.00 | 82 | 1020.3 |
| 20260504032103 | 53 | 110 | 0.0 | 0.0 | 0.00 | 0.00 | 0.00 | 81 | 1020.3 |
| 20260504031600 | 53 | 110 | 0.0 | 0.0 | 0.00 | 0.00 | 0.00 | 78 | 1020.4 |
| 20260504031056 | 53 | 110 | 0.0 | 0.0 | 0.00 | 0.00 | 0.00 | 77 | 1020.3 |
| 20260504030553 | 53 | 107 | 0.0 | 0.0 | 0.00 | 0.00 | 0.00 | 77 | 1020.3 |
| 20260504030049 | 53 | 112 | 0.0 | 0.0 | 0.00 | 0.00 | 0.00 | 74 | 1020.3 |
| 20260504025547 | 54 | 102 | 0.0 | 0.0 | 0.00 | 0.00 | 0.00 | 74 | 1020.3 |
| 20260504025043 | 54 | 93 | 0.0 | 0.0 | 0.00 | 0.00 | 0.00 | 73 | 1020.3 |
| 20260504024541 | 54 | 110 | 0.0 | 0.0 | 0.00 | 0.00 | 0.00 | 74 | 1020.4 |
| 20260504024037 | 54 | 112 | 0.0 | 0.0 | 0.00 | 0.00 | 0.00 | 73 | 1020.3 |
| 20260504023534 | 54 | 109 | 0.0 | 0.0 | 0.00 | 0.00 | 0.00 | 72 | 1020.0 |
| 20260504023030 | 55 | 108 | 0.0 | 0.0 | 0.00 | 0.00 | 0.00 | 72 | 1020.2 |
| 20260504022526 | 55 | 112 | 0.0 | 0.0 | 0.00 | 0.00 | 0.00 | 71 | 1020.2 |
| 20260504022023 | 55 | 111 | 0.0 | 0.0 | 0.00 | 0.00 | 0.00 | 70 | 1019.9 |
| 20260504021520 | 56 | 111 | 0.0 | 0.0 | 0.00 | 0.00 | 0.00 | 70 | 1019.9 |
| 20260504021017 | 56 | 113 | 0.0 | 0.0 | 0.00 | 0.00 | 0.00 | 70 | 1019.8 |
| 20260504020514 | 56 | 106 | 0.0 | 0.0 | 0.00 | 0.00 | 0.00 | 70 | 1019.7 |
| 20260504020010 | 56 | 103 | 0.0 | 0.0 | 0.00 | 0.00 | 0.00 | 69 | 1019.4 |
| 20260504015507 | 56 | 103 | 0.0 | 0.0 | 0.00 | 0.00 | 0.00 | 71 | 1019.4 |
| 20260504015003 | 57 | 105 | 0.0 | 0.0 | 0.00 | 0.00 | 0.00 | 73 | 1019.4 |
| 20260504014459 | 57 | 106 | 0.0 | 0.0 | 0.00 | 0.00 | 0.00 | 74 | 1019.2 |
| 20260504013956 | 57 | 123 | 0.0 | 0.0 | 0.00 | 0.00 | 0.00 | 77 | 1019.3 |
| 20260504013454 | 57 | 131 | 0.0 | 0.0 | 0.00 | 0.00 | 0.00 | 76 | 1019.3 |
| 20260504012950 | 57 | 131 | 0.0 | 0.0 | 0.00 | 0.00 | 0.00 | 76 | 1019.2 |
| 20260504012448 | 58 | 131 | 0.0 | 0.0 | 0.00 | 0.00 | 0.00 | 76 | 1018.9 |
| 20260504011946 | 58 | 131 | 0.0 | 0.0 | 0.00 | 0.00 | 0.00 | 75 | 1018.7 |
| 20260504011442 | 58 | 131 | 0.0 | 0.0 | 0.00 | 0.00 | 0.00 | 75 | 1018.8 |
| 20260504010938 | 59 | 131 | 0.0 | 0.0 | 0.00 | 0.00 | 0.00 | 73 | 1018.7 |
| 20260504010434 | 59 | 131 | 0.0 | 0.0 | 0.00 | 0.00 | 0.00 | 71 | 1018.9 |
| 20260504005930 | 59 | 132 | 0.0 | 0.0 | 0.00 | 0.00 | 0.00 | 70 | 1018.7 |
| 20260504005427 | 60 | 132 | 0.0 | 0.0 | 0.00 | 0.00 | 0.00 | 67 | 1018.6 |
| 20260504004925 | 60 | 132 | 0.0 | 0.0 | 0.00 | 0.00 | 0.00 | 67 | 1018.7 |
| 20260504004422 | 61 | 132 | 0.0 | 0.0 | 0.00 | 0.00 | 0.00 | 63 | 1018.8 |
| 20260504003919 | 61 | 132 | 0.0 | 0.0 | 0.00 | 0.00 | 0.00 | 62 | 1018.5 |
| 20260504003415 | 62 | 132 | 0.0 | 0.0 | 0.00 | 0.00 | 0.00 | 59 | 1018.4 |
| 20260504002912 | 62 | 138 | 0.0 | 0.0 | 0.00 | 0.00 | 0.00 | 54 | 1018.7 |
| 20260504002409 | 63 | 121 | 0.0 | 0.0 | 0.00 | 0.00 | 0.00 | 52 | 1018.6 |
| 20260504001907 | 63 | 128 | 0.0 | 0.0 | 0.00 | 0.00 | 0.00 | 52 | 1018.4 |
| 20260504001404 | 64 | 123 | 0.0 | 0.0 | 0.00 | 0.00 | 0.00 | 50 | 1018.4 |
| 20260504000900 | 64 | 124 | 0.0 | 0.0 | 0.00 | 0.00 | 0.00 | 50 | 1018.5 |
| 20260504000358 | 64 | 124 | 0.0 | 0.0 | 0.00 | 0.00 | 0.00 | 48 | 1018.4 |
| 20260503235855 | 65 | 138 | 0.0 | 0.0 | 0.00 | 0.00 | 0.00 | 48 | 1018.3 |
| 20260503235353 | 65 | 139 | 0.0 | 0.0 | 0.00 | 0.00 | 0.00 | 47 | 1018.4 |
| 20260503234850 | 66 | 134 | 0.0 | 0.0 | 0.00 | 0.00 | 0.00 | 45 | 1018.5 |
| 20260503234348 | 66 | 131 | 0.0 | 0.0 | 0.00 | 0.00 | 0.00 | 44 | 1018.4 |
| 20260503233845 | 66 | 130 | 0.0 | 0.0 | 0.00 | 0.00 | 0.00 | 45 | 1018.4 |
| 20260503233341 | 67 | 140 | 0.0 | 0.0 | 0.00 | 0.00 | 0.00 | 48 | 1018.5 |
| 20260503232837 | 67 | 149 | 0.0 | 0.0 | 0.00 | 0.00 | 0.00 | 46 | 1018.6 |
| 20260503232335 | 67 | 134 | 0.0 | 0.0 | 0.00 | 0.00 | 0.00 | 46 | 1018.4 |
| 20260503231833 | 67 | 90 | 0.0 | 0.0 | 0.00 | 0.00 | 0.00 | 46 | 1018.5 |
| 20260503231330 | 68 | 137 | 0.0 | 0.0 | 0.00 | 0.00 | 0.00 | 45 | 1018.6 |
| 20260503230825 | 68 | 140 | 0.0 | 0.0 | 0.00 | 0.00 | 0.00 | 44 | 1018.7 |
| 20260503230323 | 68 | 147 | 0.0 | 0.0 | 0.00 | 0.00 | 0.00 | 45 | 1018.5 |
| 20260503225820 | 68 | 165 | 0.0 | 0.0 | 0.00 | 0.00 | 0.00 | 44 | 1018.7 |
| 20260503225316 | 68 | 141 | 0.0 | 0.0 | 0.00 | 0.00 | 0.00 | 43 | 1018.8 |
| 20260503224812 | 68 | 141 | 0.0 | 0.0 | 0.00 | 0.00 | 0.00 | 41 | 1018.5 |
| 20260503224310 | 69 | 139 | 0.0 | 0.0 | 0.00 | 0.00 | 0.00 | 41 | 1018.4 |
| 20260503223808 | 69 | 99 | 0.0 | 2.6 | 0.00 | 0.00 | 0.00 | 41 | 1018.7 |
| 20260503223305 | 69 | 124 | 0.0 | 0.0 | 0.00 | 0.00 | 0.00 | 43 | 1018.6 |
| 20260503222800 | 69 | 202 | 0.0 | 0.0 | 0.00 | 0.00 | 0.00 | 42 | 1018.7 |
| 20260503222259 | 69 | 108 | 0.0 | 4.3 | 0.00 | 0.00 | 0.00 | 39 | 1018.7 |